Prerov, Czech Republic
Current Conditions -  °F | °C
As of 3:00 AM on Monday 24 Nov 2014 (Local Time) from LKMT Reporting Station
Clear Clear  
Wind Chill: 32°   Ceiling: Unl
Heat Index: 32°   Visibility: 5mi
Dew Point: 28°   Wind: 2mph
Humidity: 87%   Direction: NA
Pressure: 30.33"   Gusts: NA
Location:  49.46°N, 17.45°E
Report Text: LKMT 240100Z VRB02KT 8000 NSC 00/M02 Q1027 NOSIG
Loading
Personal Weather Stations






























Interactive Weather Map New forecast layout! Learn more

10-Day Weather Forecast

Advertisements
Track Severe Weather on mobile